sensor_id;sensor_type;location;lat;lon;timestamp;pressure;altitude;pressure_sealevel;temperature;humidity
74895;BME280;63447;49.446;8.666;2024-03-25T00:01:44;99594.38;;;5.68;94.58
74895;BME280;63447;49.446;8.666;2024-03-25T00:04:10;99591.81;;;5.71;94.83
74895;BME280;63447;49.446;8.666;2024-03-25T00:06:36;99612.41;;;5.69;95.81
74895;BME280;63447;49.446;8.666;2024-03-25T00:09:02;99622.88;;;5.67;95.82
74895;BME280;63447;49.446;8.666;2024-03-25T00:11:28;99601.28;;;5.65;95.05
74895;BME280;63447;49.446;8.666;2024-03-25T00:13:56;99622.38;;;5.65;95.75
74895;BME280;63447;49.446;8.666;2024-03-25T00:16:21;99611.94;;;5.75;94.77
74895;BME280;63447;49.446;8.666;2024-03-25T00:18:47;99597.72;;;5.56;95.48
74895;BME280;63447;49.446;8.666;2024-03-25T00:21:13;99579.66;;;5.38;96.29
74895;BME280;63447;49.446;8.666;2024-03-25T00:23:41;99614.19;;;5.65;95.86
74895;BME280;63447;49.446;8.666;2024-03-25T00:26:06;99605.78;;;5.61;96.24
74895;BME280;63447;49.446;8.666;2024-03-25T00:28:34;99612.25;;;5.65;96.00
74895;BME280;63447;49.446;8.666;2024-03-25T00:31:00;99605.16;;;5.64;94.88
74895;BME280;63447;49.446;8.666;2024-03-25T00:33:27;99605.00;;;5.69;95.71
74895;BME280;63447;49.446;8.666;2024-03-25T00:35:53;99609.69;;;5.69;96.32
74895;BME280;63447;49.446;8.666;2024-03-25T00:38:18;99607.75;;;5.69;95.62
74895;BME280;63447;49.446;8.666;2024-03-25T00:40:44;99607.91;;;5.64;96.21
74895;BME280;63447;49.446;8.666;2024-03-25T00:43:09;99588.38;;;5.57;95.47
74895;BME280;63447;49.446;8.666;2024-03-25T00:45:35;99612.25;;;5.65;96.35
74895;BME280;63447;49.446;8.666;2024-03-25T00:48:00;99607.75;;;5.78;94.59
74895;BME280;63447;49.446;8.666;2024-03-25T00:50:28;99595.13;;;5.51;95.89
74895;BME280;63447;49.446;8.666;2024-03-25T00:52:54;99586.59;;;5.53;94.86
74895;BME280;63447;49.446;8.666;2024-03-25T00:55:19;99574.19;;;5.38;95.79
74895;BME280;63447;49.446;8.666;2024-03-25T00:57:44;99607.66;;;5.43;96.60
74895;BME280;63447;49.446;8.666;2024-03-25T01:00:10;99605.38;;;5.37;97.13
74895;BME280;63447;49.446;8.666;2024-03-25T01:02:36;99589.56;;;5.25;97.25
74895;BME280;63447;49.446;8.666;2024-03-25T01:05:02;99580.66;;;5.11;97.11
74895;BME280;63447;49.446;8.666;2024-03-25T01:07:27;99598.88;;;5.16;98.43
74895;BME280;63447;49.446;8.666;2024-03-25T01:09:53;99609.81;;;5.24;98.43
74895;BME280;63447;49.446;8.666;2024-03-25T01:12:20;99604.34;;;5.24;98.38
74895;BME280;63447;49.446;8.666;2024-03-25T01:14:46;99609.03;;;5.24;97.73
74895;BME280;63447;49.446;8.666;2024-03-25T01:17:12;99605.31;;;5.20;98.80
74895;BME280;63447;49.446;8.666;2024-03-25T01:19:37;99593.41;;;5.16;98.30
74895;BME280;63447;49.446;8.666;2024-03-25T01:22:03;99602.25;;;5.21;98.34
74895;BME280;63447;49.446;8.666;2024-03-25T01:24:31;99609.56;;;5.34;97.48
74895;BME280;63447;49.446;8.666;2024-03-25T01:26:58;99611.94;;;5.27;97.88
74895;BME280;63447;49.446;8.666;2024-03-25T01:29:23;99614.97;;;5.26;98.74
74895;BME280;63447;49.446;8.666;2024-03-25T01:31:49;99609.50;;;5.26;98.65
74895;BME280;63447;49.446;8.666;2024-03-25T01:34:16;99599.84;;;5.20;98.33
74895;BME280;63447;49.446;8.666;2024-03-25T01:36:41;99609.19;;;5.27;98.50
74895;BME280;63447;49.446;8.666;2024-03-25T01:39:07;99606.28;;;5.24;98.46
74895;BME280;63447;49.446;8.666;2024-03-25T01:41:33;99614.66;;;5.27;98.36
74895;BME280;63447;49.446;8.666;2024-03-25T01:43:58;99604.16;;;5.12;98.63
74895;BME280;63447;49.446;8.666;2024-03-25T01:46:24;99611.91;;;5.19;99.79
74895;BME280;63447;49.446;8.666;2024-03-25T01:48:55;99605.31;;;5.20;98.62
74895;BME280;63447;49.446;8.666;2024-03-25T01:51:23;99608.06;;;5.20;98.52
74895;BME280;63447;49.446;8.666;2024-03-25T01:53:49;99611.56;;;5.20;98.49
74895;BME280;63447;49.446;8.666;2024-03-25T01:56:16;99612.88;;;5.23;98.89
74895;BME280;63447;49.446;8.666;2024-03-25T01:58:42;99611.91;;;5.19;97.82
74895;BME280;63447;49.446;8.666;2024-03-25T02:01:11;99604.97;;;5.13;98.82
74895;BME280;63447;49.446;8.666;2024-03-25T02:03:39;99608.81;;;5.11;99.91
74895;BME280;63447;49.446;8.666;2024-03-25T02:06:07;99568.94;;;4.80;98.59
74895;BME280;63447;49.446;8.666;2024-03-25T02:08:34;99596.34;;;4.97;99.14
74895;BME280;63447;49.446;8.666;2024-03-25T02:10:59;99611.00;;;5.01;99.67
74895;BME280;63447;49.446;8.666;2024-03-25T02:13:25;99603.44;;;4.98;99.83
74895;BME280;63447;49.446;8.666;2024-03-25T02:15:51;99567.50;;;4.82;99.55
74895;BME280;63447;49.446;8.666;2024-03-25T02:18:19;99576.50;;;4.83;99.62
74895;BME280;63447;49.446;8.666;2024-03-25T02:20:45;99612.81;;;5.05;99.66
74895;BME280;63447;49.446;8.666;2024-03-25T02:23:11;99607.34;;;5.05;100.00
74895;BME280;63447;49.446;8.666;2024-03-25T02:25:41;99555.22;;;4.71;99.66
74895;BME280;63447;49.446;8.666;2024-03-25T02:28:09;99591.50;;;4.94;99.26
74895;BME280;63447;49.446;8.666;2024-03-25T02:30:37;99611.00;;;5.01;99.86
74895;BME280;63447;49.446;8.666;2024-03-25T02:33:03;99582.78;;;4.83;98.85
74895;BME280;63447;49.446;8.666;2024-03-25T02:35:29;99607.13;;;4.93;99.01
74895;BME280;63447;49.446;8.666;2024-03-25T02:37:58;99596.63;;;4.87;100.00
74895;BME280;63447;49.446;8.666;2024-03-25T02:40:23;99612.59;;;4.93;99.96
74895;BME280;63447;49.446;8.666;2024-03-25T02:42:51;99607.91;;;4.94;99.80
74895;BME280;63447;49.446;8.666;2024-03-25T02:45:17;99606.63;;;4.91;100.00
74895;BME280;63447;49.446;8.666;2024-03-25T02:47:43;99599.31;;;4.78;99.83
74895;BME280;63447;49.446;8.666;2024-03-25T02:50:11;99598.31;;;4.74;100.00
74895;BME280;63447;49.446;8.666;2024-03-25T02:52:36;99582.63;;;4.57;100.00
74895;BME280;63447;49.446;8.666;2024-03-25T02:55:01;99594.66;;;4.56;100.00
74895;BME280;63447;49.446;8.666;2024-03-25T02:57:27;99597.41;;;4.56;100.00
74895;BME280;63447;49.446;8.666;2024-03-25T02:59:52;99596.59;;;4.56;100.00
74895;BME280;63447;49.446;8.666;2024-03-25T03:02:25;99591.56;;;4.49;100.00
74895;BME280;63447;49.446;8.666;2024-03-25T03:04:50;99590.75;;;4.49;100.00
74895;BME280;63447;49.446;8.666;2024-03-25T03:07:18;99593.25;;;4.59;100.00
74895;BME280;63447;49.446;8.666;2024-03-25T03:09:43;99599.69;;;4.63;100.00
74895;BME280;63447;49.446;8.666;2024-03-25T03:12:08;99596.09;;;4.54;100.00
74895;BME280;63447;49.446;8.666;2024-03-25T03:14:34;99594.78;;;4.51;100.00
74895;BME280;63447;49.446;8.666;2024-03-25T03:16:59;99586.59;;;4.51;100.00
74895;BME280;63447;49.446;8.666;2024-03-25T03:19:32;99560.22;;;4.24;100.00
74895;BME280;63447;49.446;8.666;2024-03-25T03:22:00;99577.28;;;4.30;100.00
74895;BME280;63447;49.446;8.666;2024-03-25T03:24:28;99558.91;;;4.22;100.00
74895;BME280;63447;49.446;8.666;2024-03-25T03:26:55;99581.81;;;4.34;100.00
74895;BME280;63447;49.446;8.666;2024-03-25T03:29:21;99573.06;;;4.24;100.00
74895;BME280;63447;49.446;8.666;2024-03-25T03:31:48;99586.09;;;4.27;100.00
74895;BME280;63447;49.446;8.666;2024-03-25T03:34:14;99583.66;;;4.25;100.00
74895;BME280;63447;49.446;8.666;2024-03-25T03:36:41;99576.72;;;4.19;100.00
74895;BME280;63447;49.446;8.666;2024-03-25T03:39:07;99582.16;;;4.19;100.00
74895;BME280;63447;49.446;8.666;2024-03-25T03:41:35;99571.50;;;4.09;100.00
74895;BME280;63447;49.446;8.666;2024-03-25T03:44:01;99587.06;;;4.08;100.00
74895;BME280;63447;49.446;8.666;2024-03-25T03:46:26;99573.94;;;3.97;100.00
74895;BME280;63447;49.446;8.666;2024-03-25T03:48:54;99590.44;;;3.92;100.00
74895;BME280;63447;49.446;8.666;2024-03-25T03:51:19;99553.81;;;3.70;100.00
74895;BME280;63447;49.446;8.666;2024-03-25T03:53:47;99578.25;;;3.89;100.00
74895;BME280;63447;49.446;8.666;2024-03-25T03:56:12;99581.94;;;3.93;100.00
74895;BME280;63447;49.446;8.666;2024-03-25T03:58:38;99571.88;;;3.80;100.00
74895;BME280;63447;49.446;8.666;2024-03-25T04:01:03;99586.59;;;3.93;100.00
74895;BME280;63447;49.446;8.666;2024-03-25T04:03:29;99579.97;;;3.85;100.00
74895;BME280;63447;49.446;8.666;2024-03-25T04:05:59;99578.75;;;3.78;100.00
74895;BME280;63447;49.446;8.666;2024-03-25T04:08:26;99599.16;;;3.80;100.00
74895;BME280;63447;49.446;8.666;2024-03-25T04:10:52;99595.47;;;3.62;100.00
74895;BME280;63447;49.446;8.666;2024-03-25T04:13:17;99597.47;;;3.70;100.00
74895;BME280;63447;49.446;8.666;2024-03-25T04:15:42;99597.09;;;3.63;100.00
74895;BME280;63447;49.446;8.666;2024-03-25T04:18:10;99590.19;;;3.66;100.00
74895;BME280;63447;49.446;8.666;2024-03-25T04:20:37;99591.19;;;3.70;100.00
74895;BME280;63447;49.446;8.666;2024-03-25T04:23:03;99547.28;;;3.44;100.00
74895;BME280;63447;49.446;8.666;2024-03-25T04:25:29;99597.34;;;3.75;100.00
74895;BME280;63447;49.446;8.666;2024-03-25T04:27:55;99596.84;;;3.73;100.00
74895;BME280;63447;49.446;8.666;2024-03-25T04:30:20;99595.84;;;3.69;100.00
74895;BME280;63447;49.446;8.666;2024-03-25T04:32:48;99574.16;;;3.51;100.00
74895;BME280;63447;49.446;8.666;2024-03-25T04:35:15;99585.97;;;3.46;100.00
74895;BME280;63447;49.446;8.666;2024-03-25T04:37:41;99609.22;;;3.57;100.00
74895;BME280;63447;49.446;8.666;2024-03-25T04:40:07;99601.94;;;3.53;100.00
74895;BME280;63447;49.446;8.666;2024-03-25T04:42:35;99605.06;;;3.60;100.00
74895;BME280;63447;49.446;8.666;2024-03-25T04:45:01;99591.03;;;3.53;100.00
74895;BME280;63447;49.446;8.666;2024-03-25T04:47:28;99599.59;;;3.60;100.00
74895;BME280;63447;49.446;8.666;2024-03-25T04:49:53;99583.03;;;3.56;100.00
74895;BME280;63447;49.446;8.666;2024-03-25T04:52:20;99572.94;;;3.43;100.00
74895;BME280;63447;49.446;8.666;2024-03-25T04:54:48;99595.25;;;3.59;100.00
74895;BME280;63447;49.446;8.666;2024-03-25T04:57:14;99599.41;;;3.56;100.00
74895;BME280;63447;49.446;8.666;2024-03-25T04:59:39;99586.66;;;3.38;100.00
74895;BME280;63447;49.446;8.666;2024-03-25T05:02:07;99606.06;;;3.50;100.00
74895;BME280;63447;49.446;8.666;2024-03-25T05:04:33;99596.47;;;3.39;100.00
74895;BME280;63447;49.446;8.666;2024-03-25T05:07:01;99610.50;;;3.46;100.00
74895;BME280;63447;49.446;8.666;2024-03-25T05:09:26;99612.72;;;3.44;100.00
74895;BME280;63447;49.446;8.666;2024-03-25T05:11:51;99605.34;;;3.45;100.00
74895;BME280;63447;49.446;8.666;2024-03-25T05:14:17;99588.72;;;3.32;100.00
74895;BME280;63447;49.446;8.666;2024-03-25T05:16:44;99606.78;;;3.42;100.00
74895;BME280;63447;49.446;8.666;2024-03-25T05:19:10;99613.25;;;3.46;100.00
74895;BME280;63447;49.446;8.666;2024-03-25T05:21:35;99613.53;;;3.45;100.00
74895;BME280;63447;49.446;8.666;2024-03-25T05:24:00;99618.81;;;3.55;100.00
74895;BME280;63447;49.446;8.666;2024-03-25T05:26:26;99620.00;;;3.49;100.00
74895;BME280;63447;49.446;8.666;2024-03-25T05:28:54;99616.78;;;3.47;100.00
74895;BME280;63447;49.446;8.666;2024-03-25T05:31:22;99622.94;;;3.52;100.00
74895;BME280;63447;49.446;8.666;2024-03-25T05:33:50;99609.00;;;3.40;100.00
74895;BME280;63447;49.446;8.666;2024-03-25T05:36:16;99623.75;;;3.53;100.00
74895;BME280;63447;49.446;8.666;2024-03-25T05:38:42;99630.22;;;3.57;100.00
74895;BME280;63447;49.446;8.666;2024-03-25T05:41:08;99636.38;;;3.62;100.00
74895;BME280;63447;49.446;8.666;2024-03-25T05:43:33;99630.28;;;3.65;100.00
74895;BME280;63447;49.446;8.666;2024-03-25T05:45:58;99605.16;;;3.55;100.00
74895;BME280;63447;49.446;8.666;2024-03-25T05:48:24;99630.28;;;3.65;100.00
74895;BME280;63447;49.446;8.666;2024-03-25T05:51:05;99626.75;;;3.65;100.00
74895;BME280;63447;49.446;8.666;2024-03-25T05:53:33;99624.84;;;3.65;100.00
74895;BME280;63447;49.446;8.666;2024-03-25T05:55:58;99632.63;;;3.72;100.00
74895;BME280;63447;49.446;8.666;2024-03-25T05:58:27;99622.00;;;3.70;100.00
74895;BME280;63447;49.446;8.666;2024-03-25T06:00:55;99615.75;;;3.70;100.00
74895;BME280;63447;49.446;8.666;2024-03-25T06:03:25;99607.06;;;3.68;100.00
74895;BME280;63447;49.446;8.666;2024-03-25T06:05:50;99625.31;;;3.95;100.00
74895;BME280;63447;49.446;8.666;2024-03-25T06:08:16;99637.34;;;3.94;100.00
74895;BME280;63447;49.446;8.666;2024-03-25T06:10:49;99641.06;;;3.98;100.00
74895;BME280;63447;49.446;8.666;2024-03-25T06:13:14;99635.22;;;3.91;100.00
74895;BME280;63447;49.446;8.666;2024-03-25T06:15:42;99637.28;;;3.71;100.00
74895;BME280;63447;49.446;8.666;2024-03-25T06:18:07;99640.41;;;3.79;100.00
74895;BME280;63447;49.446;8.666;2024-03-25T06:20:32;99633.28;;;3.91;100.00
74895;BME280;63447;49.446;8.666;2024-03-25T06:23:00;99636.72;;;3.97;100.00
74895;BME280;63447;49.446;8.666;2024-03-25T06:25:26;99635.09;;;3.96;100.00
74895;BME280;63447;49.446;8.666;2024-03-25T06:27:51;99640.19;;;3.89;100.00
74895;BME280;63447;49.446;8.666;2024-03-25T06:30:17;99627.97;;;3.86;100.00
74895;BME280;63447;49.446;8.666;2024-03-25T06:33:01;99618.47;;;3.84;100.00
74895;BME280;63447;49.446;8.666;2024-03-25T06:35:47;99611.81;;;3.76;100.00
74895;BME280;63447;49.446;8.666;2024-03-25T06:38:13;99629.28;;;3.89;100.00
74895;BME280;63447;49.446;8.666;2024-03-25T06:40:38;99642.38;;;4.00;100.00
74895;BME280;63447;49.446;8.666;2024-03-25T06:43:04;99631.78;;;3.99;100.00
74895;BME280;63447;49.446;8.666;2024-03-25T06:45:39;99644.09;;;4.10;100.00
74895;BME280;63447;49.446;8.666;2024-03-25T06:48:07;99648.31;;;4.16;100.00
74895;BME280;63447;49.446;8.666;2024-03-25T06:50:35;99652.94;;;4.29;100.00
74895;BME280;63447;49.446;8.666;2024-03-25T06:53:04;99652.88;;;4.43;100.00
74895;BME280;63447;49.446;8.666;2024-03-25T06:55:29;99638.56;;;4.37;100.00
74895;BME280;63447;49.446;8.666;2024-03-25T06:57:57;99663.81;;;4.43;100.00
74895;BME280;63447;49.446;8.666;2024-03-25T07:00:22;99662.38;;;4.46;100.00
74895;BME280;63447;49.446;8.666;2024-03-25T07:02:48;99662.97;;;4.56;100.00
74895;BME280;63447;49.446;8.666;2024-03-25T07:05:16;99662.91;;;4.70;100.00
74895;BME280;63447;49.446;8.666;2024-03-25T07:07:44;99652.56;;;4.44;100.00
74895;BME280;63447;49.446;8.666;2024-03-25T07:10:11;99653.22;;;4.64;100.00
74895;BME280;63447;49.446;8.666;2024-03-25T07:12:37;99643.78;;;4.92;100.00
74895;BME280;63447;49.446;8.666;2024-03-25T07:15:02;99663.03;;;5.49;100.00
74895;BME280;63447;49.446;8.666;2024-03-25T07:17:28;99646.47;;;5.45;100.00
74895;BME280;63447;49.446;8.666;2024-03-25T07:19:58;99646.28;;;5.42;100.00
74895;BME280;63447;49.446;8.666;2024-03-25T07:22:26;99640.66;;;5.47;100.00
74895;BME280;63447;49.446;8.666;2024-03-25T07:24:51;99644.38;;;5.51;100.00
74895;BME280;63447;49.446;8.666;2024-03-25T07:27:23;99643.97;;;5.66;100.00
74895;BME280;63447;49.446;8.666;2024-03-25T07:29:51;99655.53;;;6.11;100.00
74895;BME280;63447;49.446;8.666;2024-03-25T07:32:17;99640.84;;;5.99;99.22
74895;BME280;63447;49.446;8.666;2024-03-25T07:34:42;99652.63;;;6.08;96.80
74895;BME280;63447;49.446;8.666;2024-03-25T07:37:07;99659.72;;;6.09;96.50
74895;BME280;63447;49.446;8.666;2024-03-25T07:39:33;99658.59;;;6.27;96.51
74895;BME280;63447;49.446;8.666;2024-03-25T07:41:58;99654.56;;;6.51;96.75
74895;BME280;63447;49.446;8.666;2024-03-25T07:44:24;99653.78;;;6.50;96.40
74895;BME280;63447;49.446;8.666;2024-03-25T07:46:52;99660.88;;;6.51;94.42
74895;BME280;63447;49.446;8.666;2024-03-25T07:49:17;99650.06;;;6.55;93.57
74895;BME280;63447;49.446;8.666;2024-03-25T07:51:45;99653.13;;;6.79;94.53
74895;BME280;63447;49.446;8.666;2024-03-25T07:54:10;99649.09;;;6.94;93.54
74895;BME280;63447;49.446;8.666;2024-03-25T07:56:41;99630.72;;;6.51;91.79
74895;BME280;63447;49.446;8.666;2024-03-25T07:59:07;99603.31;;;6.25;94.44
74895;BME280;63447;49.446;8.666;2024-03-25T08:01:32;99650.38;;;6.88;95.08
74895;BME280;63447;49.446;8.666;2024-03-25T08:03:57;99641.59;;;7.20;91.81
74895;BME280;63447;49.446;8.666;2024-03-25T08:06:29;99638.97;;;7.32;90.46
74895;BME280;63447;49.446;8.666;2024-03-25T08:08:57;99635.34;;;8.08;89.76
74895;BME280;63447;49.446;8.666;2024-03-25T08:11:22;99653.03;;;7.98;84.12
74895;BME280;63447;49.446;8.666;2024-03-25T08:13:50;99625.06;;;8.05;84.16
74895;BME280;63447;49.446;8.666;2024-03-25T08:16:17;99650.16;;;7.57;85.82
74895;BME280;63447;49.446;8.666;2024-03-25T08:18:49;99632.06;;;7.94;84.89
74895;BME280;63447;49.446;8.666;2024-03-25T08:21:17;99646.38;;;7.78;84.75
74895;BME280;63447;49.446;8.666;2024-03-25T08:23:46;99633.91;;;8.31;84.37
74895;BME280;63447;49.446;8.666;2024-03-25T08:26:16;99624.00;;;8.60;82.03
74895;BME280;63447;49.446;8.666;2024-03-25T08:28:41;99631.31;;;8.89;77.09
74895;BME280;63447;49.446;8.666;2024-03-25T08:31:09;99640.50;;;8.60;78.90
74895;BME280;63447;49.446;8.666;2024-03-25T08:33:37;99631.91;;;8.40;81.04
74895;BME280;63447;49.446;8.666;2024-03-25T08:36:03;99631.94;;;8.32;76.27
74895;BME280;63447;49.446;8.666;2024-03-25T08:38:29;99627.75;;;8.76;78.76
74895;BME280;63447;49.446;8.666;2024-03-25T08:40:54;99606.00;;;8.62;75.62
74895;BME280;63447;49.446;8.666;2024-03-25T08:43:19;99618.16;;;8.94;72.81
74895;BME280;63447;49.446;8.666;2024-03-25T08:45:45;99607.63;;;8.96;69.30
74895;BME280;63447;49.446;8.666;2024-03-25T08:48:11;99614.72;;;9.30;71.76
74895;BME280;63447;49.446;8.666;2024-03-25T08:50:37;99633.88;;;9.63;69.95
74895;BME280;63447;49.446;8.666;2024-03-25T08:53:06;99625.38;;;9.44;65.07
74895;BME280;63447;49.446;8.666;2024-03-25T08:55:34;99628.59;;;10.07;66.30
74895;BME280;63447;49.446;8.666;2024-03-25T08:58:02;99613.44;;;10.01;60.91
74895;BME280;63447;49.446;8.666;2024-03-25T09:00:28;99634.78;;;10.28;61.37
74895;BME280;63447;49.446;8.666;2024-03-25T09:02:54;99637.44;;;9.64;60.33
74895;BME280;63447;49.446;8.666;2024-03-25T09:05:20;99640.09;;;9.84;60.54
74895;BME280;63447;49.446;8.666;2024-03-25T09:07:46;99631.09;;;10.36;59.88
74895;BME280;63447;49.446;8.666;2024-03-25T09:10:16;99626.16;;;10.70;58.44
74895;BME280;63447;49.446;8.666;2024-03-25T09:13:00;99616.47;;;10.76;55.63
74895;BME280;63447;49.446;8.666;2024-03-25T09:15:30;99621.50;;;10.86;55.33
74895;BME280;63447;49.446;8.666;2024-03-25T09:17:56;99624.22;;;11.14;56.01
74895;BME280;63447;49.446;8.666;2024-03-25T09:20:22;99611.03;;;11.23;54.93
74895;BME280;63447;49.446;8.666;2024-03-25T09:22:47;99618.91;;;11.37;54.29
74895;BME280;63447;49.446;8.666;2024-03-25T09:25:14;99600.38;;;11.53;54.35
74895;BME280;63447;49.446;8.666;2024-03-25T09:27:49;99602.34;;;11.37;52.94
74895;BME280;63447;49.446;8.666;2024-03-25T09:30:17;99585.84;;;11.56;53.45
74895;BME280;63447;49.446;8.666;2024-03-25T09:32:45;99589.31;;;11.53;53.95
74895;BME280;63447;49.446;8.666;2024-03-25T09:35:11;99590.75;;;11.78;52.37
74895;BME280;63447;49.446;8.666;2024-03-25T09:37:39;99582.91;;;12.15;52.90
74895;BME280;63447;49.446;8.666;2024-03-25T09:40:07;99557.34;;;12.22;52.07
74895;BME280;63447;49.446;8.666;2024-03-25T09:42:48;99576.88;;;12.48;51.43
74895;BME280;63447;49.446;8.666;2024-03-25T09:45:24;99564.88;;;12.60;50.25
74895;BME280;63447;49.446;8.666;2024-03-25T09:47:54;99552.63;;;12.61;48.81
74895;BME280;63447;49.446;8.666;2024-03-25T09:50:25;99554.53;;;12.57;49.06
74895;BME280;63447;49.446;8.666;2024-03-25T09:52:53;99552.50;;;12.96;49.43
74895;BME280;63447;49.446;8.666;2024-03-25T09:55:19;99555.69;;;13.17;48.94
74895;BME280;63447;49.446;8.666;2024-03-25T09:57:45;99541.38;;;12.73;49.86
74895;BME280;63447;49.446;8.666;2024-03-25T10:00:14;99529.84;;;12.90;47.49
74895;BME280;63447;49.446;8.666;2024-03-25T10:02:40;99529.13;;;12.94;49.24
74895;BME280;63447;49.446;8.666;2024-03-25T10:05:07;99517.34;;;13.19;46.45
74895;BME280;63447;49.446;8.666;2024-03-25T10:07:33;99529.69;;;13.48;46.56
74895;BME280;63447;49.446;8.666;2024-03-25T10:09:58;99536.56;;;13.58;47.93
74895;BME280;63447;49.446;8.666;2024-03-25T10:12:24;99528.19;;;14.11;46.66
74895;BME280;63447;49.446;8.666;2024-03-25T10:14:52;99531.66;;;13.48;44.08
74895;BME280;63447;49.446;8.666;2024-03-25T10:17:20;99520.53;;;13.21;46.32
74895;BME280;63447;49.446;8.666;2024-03-25T10:19:47;99519.19;;;12.50;46.65
74895;BME280;63447;49.446;8.666;2024-03-25T10:22:15;99526.88;;;11.33;48.10
74895;BME280;63447;49.446;8.666;2024-03-25T10:24:45;99519.56;;;10.93;49.14
74895;BME280;63447;49.446;8.666;2024-03-25T10:29:52;99508.88;;;11.74;47.96
74895;BME280;63447;49.446;8.666;2024-03-25T10:32:18;99495.69;;;12.21;46.94
74895;BME280;63447;49.446;8.666;2024-03-25T10:34:43;99498.03;;;13.27;46.08
74895;BME280;63447;49.446;8.666;2024-03-25T10:37:12;99514.84;;;13.90;44.59
74895;BME280;63447;49.446;8.666;2024-03-25T10:39:48;99497.63;;;14.07;42.75
74895;BME280;63447;49.446;8.666;2024-03-25T10:42:23;99498.06;;;14.09;42.98
74895;BME280;63447;49.446;8.666;2024-03-25T10:44:51;99503.66;;;14.43;42.38
74895;BME280;63447;49.446;8.666;2024-03-25T10:47:24;99497.53;;;15.01;41.33
74895;BME280;63447;49.446;8.666;2024-03-25T10:50:01;99497.63;;;14.07;42.49
74895;BME280;63447;49.446;8.666;2024-03-25T10:52:31;99491.53;;;12.93;43.30
74895;BME280;63447;49.446;8.666;2024-03-25T10:54:57;99503.50;;;13.00;45.83
74895;BME280;63447;49.446;8.666;2024-03-25T10:57:23;99493.84;;;13.36;41.83
74895;BME280;63447;49.446;8.666;2024-03-25T10:59:54;99495.88;;;13.39;42.09
74895;BME280;63447;49.446;8.666;2024-03-25T11:02:23;99470.63;;;13.18;42.10
74895;BME280;63447;49.446;8.666;2024-03-25T11:04:54;99471.88;;;12.78;42.95
74895;BME280;63447;49.446;8.666;2024-03-25T11:07:30;99463.06;;;12.50;43.43
74895;BME280;63447;49.446;8.666;2024-03-25T11:10:06;99471.81;;;12.75;41.38
74895;BME280;63447;49.446;8.666;2024-03-25T11:12:35;99471.00;;;13.99;39.56
74895;BME280;63447;49.446;8.666;2024-03-25T11:15:04;99466.38;;;13.24;39.71
74895;BME280;63447;49.446;8.666;2024-03-25T11:17:31;99446.66;;;14.19;37.84
74895;BME280;63447;49.446;8.666;2024-03-25T11:20:10;99459.28;;;14.46;37.42
74895;BME280;63447;49.446;8.666;2024-03-25T11:22:52;99439.53;;;14.51;38.72
74895;BME280;63447;49.446;8.666;2024-03-25T11:25:20;99449.06;;;15.49;37.33
74895;BME280;63447;49.446;8.666;2024-03-25T11:27:46;99408.84;;;16.02;36.58
74895;BME280;63447;49.446;8.666;2024-03-25T11:30:13;99435.69;;;16.74;34.21
74895;BME280;63447;49.446;8.666;2024-03-25T11:32:54;99436.06;;;15.64;35.30
74895;BME280;63447;49.446;8.666;2024-03-25T11:35:20;99421.22;;;16.22;34.79
74895;BME280;63447;49.446;8.666;2024-03-25T11:37:45;99414.91;;;15.49;35.72
74895;BME280;63447;49.446;8.666;2024-03-25T11:40:12;99398.03;;;15.86;35.54
74895;BME280;63447;49.446;8.666;2024-03-25T11:42:42;99408.94;;;16.37;35.02
74895;BME280;63447;49.446;8.666;2024-03-25T11:45:20;99414.31;;;14.34;34.70
74895;BME280;63447;49.446;8.666;2024-03-25T11:47:49;99402.41;;;14.33;35.65
74895;BME280;63447;49.446;8.666;2024-03-25T11:50:20;99399.75;;;14.84;37.05
74895;BME280;63447;49.446;8.666;2024-03-25T11:52:46;99383.38;;;15.96;35.60
74895;BME280;63447;49.446;8.666;2024-03-25T11:55:16;99393.75;;;15.34;35.88
74895;BME280;63447;49.446;8.666;2024-03-25T11:57:42;99386.22;;;15.34;34.09
74895;BME280;63447;49.446;8.666;2024-03-25T12:00:08;99365.53;;;15.24;35.29
74895;BME280;63447;49.446;8.666;2024-03-25T12:02:39;99378.41;;;16.87;33.88
74895;BME280;63447;49.446;8.666;2024-03-25T12:05:07;99367.19;;;17.19;32.86
74895;BME280;63447;49.446;8.666;2024-03-25T12:07:35;99366.72;;;17.52;30.73
74895;BME280;63447;49.446;8.666;2024-03-25T12:10:01;99353.34;;;18.13;30.36
74895;BME280;63447;49.446;8.666;2024-03-25T12:12:45;99352.16;;;18.11;30.34
74895;BME280;63447;49.446;8.666;2024-03-25T12:15:11;99346.00;;;18.37;30.17
74895;BME280;63447;49.446;8.666;2024-03-25T12:17:38;99356.84;;;18.24;29.71
74895;BME280;63447;49.446;8.666;2024-03-25T12:20:06;99348.19;;;18.05;29.19
74895;BME280;63447;49.446;8.666;2024-03-25T12:22:37;99345.50;;;17.90;28.73
74895;BME280;63447;49.446;8.666;2024-03-25T12:25:05;99347.97;;;17.67;26.97
74895;BME280;63447;49.446;8.666;2024-03-25T12:27:35;99343.94;;;17.79;28.25
74895;BME280;63447;49.446;8.666;2024-03-25T12:30:08;99331.78;;;18.14;29.24
74895;BME280;63447;49.446;8.666;2024-03-25T12:35:10;99342.75;;;19.35;27.23
74895;BME280;63447;49.446;8.666;2024-03-25T12:37:39;99331.34;;;18.74;26.85
74895;BME280;63447;49.446;8.666;2024-03-25T12:40:06;99328.59;;;18.15;27.72
74895;BME280;63447;49.446;8.666;2024-03-25T12:42:34;99310.72;;;18.57;27.16
74895;BME280;63447;49.446;8.666;2024-03-25T12:45:01;99310.28;;;19.07;26.71
74895;BME280;63447;49.446;8.666;2024-03-25T12:47:30;99297.56;;;19.40;27.17
74895;BME280;63447;49.446;8.666;2024-03-25T12:49:56;99283.69;;;20.21;26.59
74895;BME280;63447;49.446;8.666;2024-03-25T12:52:24;99287.34;;;20.45;26.05
74895;BME280;63447;49.446;8.666;2024-03-25T12:54:50;99278.25;;;20.60;24.82
74895;BME280;63447;49.446;8.666;2024-03-25T12:57:15;99272.81;;;19.01;25.07
74895;BME280;63447;49.446;8.666;2024-03-25T12:59:43;99272.75;;;18.15;26.65
74895;BME280;63447;49.446;8.666;2024-03-25T13:02:12;99259.06;;;19.17;26.88
74895;BME280;63447;49.446;8.666;2024-03-25T13:04:38;99256.75;;;20.27;25.70
74895;BME280;63447;49.446;8.666;2024-03-25T13:07:11;99249.34;;;20.87;24.53
74895;BME280;63447;49.446;8.666;2024-03-25T13:09:38;99248.13;;;21.51;23.43